Time;durP1;ratioP1;P1;durP2;ratioP2;P2;SDS_P1;SDS_P2;PMS_P1;PMS_P2;Temp;Humidity;BMP_temperature;BMP_pressure;BME280_temperature;BME280_humidity;BME280_pressure;Samples;Min_cycle;Max_cycle;Signal;HPM_P1;HPM_P2
2022/01/17 00:02:11;;;;;;;;;;;;;;;;;;5090263;28;19915;-61
2022/01/17 00:04:37;;;;;;;;;;;;;;;;;;5072081;28;19912;-64
2022/01/17 00:07:03;;;;;;;;;;;;;;;;;;5090011;28;20057;-63
2022/01/17 00:09:29;;;;;;;;;;;;;;;;;;5090578;28;19919;-64
2022/01/17 00:11:56;;;;;;;;;;;;;;;;;;5090357;28;20413;-64
2022/01/17 00:14:28;;;;;;;;;;;;;;;;;;5065874;28;19965;-65
2022/01/17 00:17:08;;;;;;;;;;;;;;;;;;5091641;28;20336;-65
2022/01/17 00:19:41;;;;;;;;;;;;;;;;;;5072120;28;20368;-62
2022/01/17 00:22:07;;;;;;;;;;;;;;;;;;5090616;28;20566;-65
2022/01/17 00:24:33;;;;;;;;;;;;;;;;;;5090541;28;19922;-64
2022/01/17 00:26:59;;;;;;;;;;;;;;;;;;5090062;28;19908;-64
2022/01/17 00:29:25;;;;;;;;;;;;;;;;;;5071794;28;19915;-65
2022/01/17 00:31:51;;;;;;;;;;;;;;;;;;5072204;28;20629;-65
2022/01/17 00:34:17;;;;;;;;;;;;;;;;;;5089978;28;19908;-62
2022/01/17 00:36:43;;;;;;;;;;;;;;;;;;5090119;28;19912;-63
2022/01/17 00:39:09;;;;;;;;;;;;;;;;;;5090555;28;19912;-63
2022/01/17 00:41:35;;;;;;;;;;;;;;;;;;5089940;28;19931;-63
2022/01/17 00:44:01;;;;;;;;;;;;;;;;;;5072113;28;20472;-64
2022/01/17 00:46:27;;;;;;;;;;;;;;;;;;5090095;28;19985;-65
2022/01/17 00:48:53;;;;;;;;;;;;;;;;;;5090011;28;20475;-63
2022/01/17 00:51:19;;;;;;;;;;;;;;;;;;5090020;28;19919;-63
2022/01/17 00:53:44;;;;;;;;;;;;;;;;;;5089795;28;20279;-62
2022/01/17 00:56:10;;;;;;;;;;;;;;;;;;5090000;28;19957;-64
2022/01/17 00:58:36;;;;;;;;;;;;;;;;;;5082344;28;20438;-64
2022/01/17 01:01:02;;;;;;;;;;;;;;;;;;5092733;23;19908;-60
2022/01/17 01:03:28;;;;;;;;;;;;;;;;;;5071765;28;19916;-62
2022/01/17 01:05:54;;;;;;;;;;;;;;;;;;5072410;28;19912;-62
2022/01/17 01:08:20;;;;;;;;;;;;;;;;;;5072586;28;20284;-59
2022/01/17 01:10:46;;;;;;;;;;;;;;;;;;5072522;28;20250;-59
2022/01/17 01:13:12;;;;;;;;;;;;;;;;;;5072490;28;19995;-61
2022/01/17 01:18:18;;;;;;;;;;;;;;;;;;5073289;28;19909;-59
2022/01/17 01:28:39;;;;;;;;;;;;;;;;;;5072554;28;19958;-60
2022/01/17 01:31:12;;;;;;;;;;;;;;;;;;5054604;28;19952;-61
2022/01/17 01:33:41;;;;;;;;;;;;;;;;;;5054248;28;20331;-60
2022/01/17 01:36:16;;;;;;;;;;;;;;;;;;5072415;28;20349;-61
2022/01/17 01:38:43;;;;;;;;;;;;;;;;;;5072373;28;19958;-60
2022/01/17 01:41:09;;;;;;;;;;;;;;;;;;5072361;28;19908;-59
2022/01/17 01:43:34;;;;;;;;;;;;;;;;;;5072025;28;20429;-61
2022/01/17 01:46:02;;;;;;;;;;;;;;;;;;5072482;28;19909;-61
2022/01/17 01:48:28;;;;;;;;;;;;;;;;;;5072267;28;19972;-63
2022/01/17 01:50:53;;;;;;;;;;;2.80;99.90;;;;;;5072198;28;19951;-63
2022/01/17 01:53:19;;;;;;;;;;;6.20;99.90;;;;;;5054040;28;19921;-59
2022/01/17 01:55:45;;;;;;;;;;;6.20;99.90;;;;;;5072268;28;19908;-58
2022/01/17 01:58:10;;;;;;;;;;;6.10;99.90;;;;;;5072179;28;20059;-59
2022/01/17 02:00:36;;;;;;;;;;;6.10;99.90;;;;;;5072275;28;19909;-60
2022/01/17 02:03:01;;;;;;;;;;;6.10;99.90;;;;;;5054571;28;19917;-63
2022/01/17 02:05:27;;;;;;;;;;;6.10;99.90;;;;;;5075879;28;19915;-61
2022/01/17 02:07:52;;;;;;;;;;;6.10;99.90;;;;;;5075996;28;19916;-61
2022/01/17 02:10:18;;;;;;;;;;;6.10;99.90;;;;;;5075893;28;19909;-61
2022/01/17 02:12:44;;;;;;;;;;;6.10;99.90;;;;;;5075511;28;19908;-58
2022/01/17 02:15:16;;;;;;;;;;;6.10;99.90;;;;;;5075728;28;19915;-55
2022/01/17 02:17:53;;;;;;;;;;;6.10;99.90;;;;;;5075758;28;19909;-58
2022/01/17 02:20:21;;;;;;;;;;;6.10;99.90;;;;;;5075926;28;19912;-57
2022/01/17 02:22:47;;;;;;;;;;;6.10;99.90;;;;;;5075308;28;19947;-59
2022/01/17 02:25:13;;;;;;;;;;;6.10;99.90;;;;;;5075660;28;19955;-59
2022/01/17 02:27:38;;;;;;;;;;;6.10;99.90;;;;;;5057707;28;19916;-58
2022/01/17 02:30:04;;;;;;;;;;;6.00;99.90;;;;;;5075686;28;19908;-59
2022/01/17 02:32:30;;;;;;;;;;;6.00;99.90;;;;;;5057707;28;20356;-58
2022/01/17 02:35:16;;;;;;;;;;;6.00;99.90;;;;;;5075487;28;19915;-62
2022/01/17 02:37:41;;;;;;;;;;;6.00;99.90;;;;;;5075528;28;20353;-58
2022/01/17 02:40:07;;;;;;;;;;;6.00;99.90;;;;;;5057322;28;19909;-58
2022/01/17 02:42:35;;;;;;;;;;;6.00;99.90;;;;;;5075027;28;19909;-60
2022/01/17 02:45:10;;;;;;;;;;;5.90;99.90;;;;;;5075131;28;19974;-57
2022/01/17 02:47:35;;;;;;;;;;;6.00;99.90;;;;;;5075434;28;19948;-60
2022/01/17 02:50:01;;;;;;;;;;;5.90;99.90;;;;;;5075178;28;20591;-60
2022/01/17 02:52:26;;;;;;;;;;;5.90;99.90;;;;;;5074982;28;19954;-61
2022/01/17 02:54:52;;;;;;;;;;;5.90;99.90;;;;;;5075305;28;19948;-62
2022/01/17 02:57:17;;;;;;;;;;;5.90;99.90;;;;;;5075255;28;19962;-60
2022/01/17 02:59:43;;;;;;;;;;;6.00;99.90;;;;;;5074826;28;20368;-57
2022/01/17 03:02:08;;;;;;;;;;;5.90;99.90;;;;;;5056695;28;19932;-58
2022/01/17 03:04:34;;;;;;;;;;;5.90;99.90;;;;;;5075015;28;19940;-57
2022/01/17 03:06:59;;;;;;;;;;;5.90;99.90;;;;;;5074920;28;19908;-57
2022/01/17 03:09:27;;;;;;;;;;;5.90;99.90;;;;;;5074772;28;20007;-62
2022/01/17 03:11:53;;;;;;;;;;;5.90;99.90;;;;;;5074753;28;19975;-58
2022/01/17 03:14:19;;;;;;;;;;;5.90;99.90;;;;;;5074328;28;19908;-61
2022/01/17 03:16:47;;;;;;;;;;;5.90;99.90;;;;;;5057224;28;19962;-60
2022/01/17 03:19:12;;;;;;;;;;;5.90;99.90;;;;;;5074759;28;19908;-61
2022/01/17 03:21:38;;;;;;;;;;;5.90;99.90;;;;;;5074841;28;19962;-60
2022/01/17 03:24:04;;;;;;;;;;;5.80;99.90;;;;;;5074224;28;20249;-59
2022/01/17 03:26:30;;;;;;;;;;;5.90;99.90;;;;;;5074886;28;19983;-61
2022/01/17 03:29:00;;;;;;;;;;;5.90;99.90;;;;;;5074429;28;19916;-59
2022/01/17 03:31:25;;;;;;;;;;;5.90;99.90;;;;;;5074367;28;20449;-61
2022/01/17 03:33:51;;;;;;;;;;;5.80;99.90;;;;;;5074181;28;19912;-58
2022/01/17 03:36:16;;;;;;;;;;;5.80;99.90;;;;;;5056659;28;19948;-58
2022/01/17 03:38:42;;;;;;;;;;;5.80;99.90;;;;;;5074391;28;19908;-62
2022/01/17 03:41:10;;;;;;;;;;;5.80;99.90;;;;;;5074303;28;20337;-60
2022/01/17 03:43:35;;;;;;;;;;;5.90;99.90;;;;;;5056188;28;20527;-60
2022/01/17 03:46:01;;;;;;;;;;;5.80;99.90;;;;;;5056784;28;19915;-62
2022/01/17 03:48:29;;;;;;;;;;;5.80;99.90;;;;;;5073951;28;20329;-62
2022/01/17 03:50:55;;;;;;;;;;;5.80;99.90;;;;;;5074316;28;19913;-60
2022/01/17 03:53:21;;;;;;;;;;;5.80;99.90;;;;;;5073772;28;19913;-59
2022/01/17 03:55:46;;;;;;;;;;;5.80;99.90;;;;;;5056115;28;19962;-62
2022/01/17 03:58:12;;;;;;;;;;;5.80;99.90;;;;;;5073988;28;20388;-60
2022/01/17 04:00:42;;;;;;;;;;;5.70;99.90;;;;;;5074329;28;19971;-60
2022/01/17 04:03:07;;;;;;;;;;;5.70;99.90;;;;;;5073975;28;20072;-62
2022/01/17 04:05:33;;;;;;;;;;;5.70;99.90;;;;;;5074470;28;19913;-60
2022/01/17 04:07:58;;;;;;;;;;;5.70;99.90;;;;;;5074184;28;19909;-60
2022/01/17 04:10:24;;;;;;;;;;;5.70;99.90;;;;;;5073607;28;19916;-58
2022/01/17 04:12:49;;;;;;;;;;;5.70;99.90;;;;;;5073578;28;19909;-59
2022/01/17 04:15:16;;;;;;;;;;;5.70;99.90;;;;;;5073708;28;19915;-59
2022/01/17 04:17:43;;;;;;;;;;;;;;;;;;5073196;28;20437;-59
2022/01/17 04:20:12;;;;;;;;;;;;;;;;;;5073496;28;19908;-58
2022/01/17 04:22:41;;;;;;;;;;;;;;;;;;5072979;28;20283;-58
2022/01/17 04:25:07;;;;;;;;;;;;;;;;;;5073464;28;19951;-60
2022/01/17 04:27:33;;;;;;;;;;;;;;;;;;5054930;28;20332;-58
2022/01/17 04:29:58;;;;;;;;;;;;;;;;;;5073442;28;20352;-59
2022/01/17 04:32:24;;;;;;;;;;;;;;;;;;5073032;28;19999;-62
2022/01/17 04:34:50;;;;;;;;;;;;;;;;;;5073160;28;19995;-58
2022/01/17 04:37:16;;;;;;;;;;;;;;;;;;5055055;28;19989;-57
2022/01/17 04:39:42;;;;;;;;;;;;;;;;;;5073106;28;19912;-60
2022/01/17 04:42:12;;;;;;;;;;;;;;;;;;5072832;28;19963;-58
2022/01/17 04:47:23;;;;;;;;;;;;;;;;;;5072759;28;19967;-60
2022/01/17 04:49:49;;;;;;;;;;;;;;;;;;5055373;28;19909;-62
2022/01/17 04:52:15;;;;;;;;;;;;;;;;;;5072364;28;19916;-60
2022/01/17 04:54:42;;;;;;;;;;;;;;;;;;5055052;28;19908;-60
2022/01/17 04:57:08;;;;;;;;;;;;;;;;;;5054961;28;19908;-61
2022/01/17 04:59:34;;;;;;;;;;;;;;;;;;5072901;28;19909;-59
2022/01/17 05:02:00;;;;;;;;;;;;;;;;;;5054470;28;19974;-60
2022/01/17 05:04:26;;;;;;;;;;;;;;;;;;5072329;28;19920;-60
2022/01/17 05:06:52;;;;;;;;;;;;;;;;;;5054697;28;20391;-60
2022/01/17 05:09:18;;;;;;;;;;;;;;;;;;5072926;28;19954;-60
2022/01/17 05:11:44;;;;;;;;;;;;;;;;;;5054781;28;19908;-62
2022/01/17 05:14:10;;;;;;;;;;;;;;;;;;5072485;28;20383;-60
2022/01/17 05:16:42;;;;;;;;;;;;;;;;;;5054650;28;19909;-62
2022/01/17 05:21:52;;;;;;;;;;;;;;;;;;5072261;28;20395;-62
2022/01/17 05:24:18;;;;;;;;;;;;;;;;;;5072268;28;19912;-61
2022/01/17 05:26:44;;;;;;;;;;;;;;;;;;5073138;28;19908;-60
2022/01/17 05:29:10;;;;;;;;;;;;;;;;;;5072717;28;19916;-61
2022/01/17 05:31:36;;;;;;;;;;;;;;;;;;5072298;28;20291;-61
2022/01/17 05:34:02;;;;;;;;;;;;;;;;;;5072113;28;19909;-61
2022/01/17 05:36:27;;;;;;;;;;;;;;;;;;5072755;28;19909;-60
2022/01/17 05:38:53;;;;;;;;;;;;;;;;;;5057788;28;19908;-61
2022/01/17 05:41:19;;;;;;;;;;;;;;;;;;5058571;28;19974;-59
2022/01/17 05:43:45;;;;;;;;;;;;;;;;;;5076147;28;19912;-54
2022/01/17 05:46:11;;;;;;;;;;;;;;;;;;5076494;28;19920;-60
2022/01/17 05:48:37;;;;;;;;;;;;;;;;;;5076236;28;20025;-62
2022/01/17 05:51:03;;;;;;;;;;;;;;;;;;5076353;28;19909;-61
2022/01/17 05:53:29;;;;;;;;;;;;;;;;;;5075894;28;19913;-59
2022/01/17 05:55:54;;;;;;;;;;;;;;;;;;5076089;28;19931;-60
2022/01/17 05:58:20;;;;;;;;;;;;;;;;;;5076443;28;19915;-62
2022/01/17 06:00:46;;;;;;;;;;;;;;;;;;5076138;28;20360;-61
2022/01/17 06:03:12;;;;;;;;;;;;;;;;;;5075518;28;19962;-60
2022/01/17 06:05:38;;;;;;;;;;;;;;;;;;5058245;28;20276;-58
2022/01/17 06:08:04;;;;;;;;;;;;;;;;;;5058189;28;19912;-61
2022/01/17 06:10:30;;;;;;;;;;;;;;;;;;5076698;28;19908;-60
2022/01/17 06:12:56;;;;;;;;;;;;;;;;;;5075734;28;19916;-63
2022/01/17 06:15:22;;;;;;;;;;;;;;;;;;5077157;28;19947;-62
2022/01/17 06:17:48;;;;;;;;;;;;;;;;;;5078131;28;19908;-63
2022/01/17 06:20:14;;;;;;;;;;;;;;;;;;5077586;28;19909;-59
2022/01/17 06:22:40;;;;;;;;;;;;;;;;;;5076600;28;19909;-61
2022/01/17 06:25:05;;;;;;;;;;;;;;;;;;5077062;28;19920;-60
2022/01/17 06:27:31;;;;;;;;;;;;;;;;;;5077680;28;19913;-64
2022/01/17 06:29:59;;;;;;;;;;;;;;;;;;5077831;28;19961;-61
2022/01/17 06:32:25;;;;;;;;;;;;;;;;;;5077186;28;19912;-61
2022/01/17 06:34:50;;;;;;;;;;;;;;;;;;5076455;28;20291;-60
2022/01/17 06:37:16;;;;;;;;;;;;;;;;;;5075465;28;19908;-60
2022/01/17 06:39:42;;;;;;;;;;;;;;;;;;5075300;28;20320;-62
2022/01/17 06:42:08;;;;;;;;;;;;;;;;;;5074911;28;19916;-60
2022/01/17 06:44:34;;;;;;;;;;;;;;;;;;5074931;28;20265;-61
2022/01/17 06:47:00;;;;;;;;;;;;;;;;;;5074971;28;19908;-59
2022/01/17 06:49:26;;;;;;;;;;;;;;;;;;5056704;28;20437;-63
2022/01/17 06:51:52;;;;;;;;;;;;;;;;;;5056768;28;19915;-61
2022/01/17 06:54:17;;;;;;;;;;;;;;;;;;5074914;28;19908;-59
2022/01/17 06:56:46;;;;;;;;;;;;;;;;;;5075047;28;19915;-61
2022/01/17 06:59:12;;;;;;;;;;;;;;;;;;5047491;28;19916;-62
2022/01/17 07:01:38;;;;;;;;;;;;;;;;;;5086099;22;19901;-63
2022/01/17 07:04:04;;;;;;;;;;;;;;;;;;5094323;28;19930;-60
2022/01/17 07:06:30;;;;;;;;;;;;;;;;;;5094765;28;19981;-60
2022/01/17 07:08:56;;;;;;;;;;;;;;;;;;5078357;28;19991;-61
2022/01/17 07:11:22;;;;;;;;;;;;;;;;;;5073626;28;19908;-62
2022/01/17 07:13:47;;;;;;;;;;;;;;;;;;5054283;28;19909;-62
2022/01/17 07:16:13;;;;;;;;;;;;;;;;;;5058166;28;20009;-62
2022/01/17 07:18:39;;;;;;;;;;;;;;;;;;5073783;28;19999;-62
2022/01/17 07:21:05;;;;;;;;;;;;;;;;;;5073886;28;19916;-62
2022/01/17 07:23:31;;;;;;;;;;;;;;;;;;5072657;28;20279;-62
2022/01/17 07:25:57;;;;;;;;;;;;;;;;;;5073569;28;20007;-64
2022/01/17 07:28:23;;;;;;;;;;;;;;;;;;5075576;28;19908;-63
2022/01/17 07:30:49;;;;;;;;;;;;;;;;;;5074905;28;19912;-63
2022/01/17 07:33:15;;;;;;;;;;;;;;;;;;5070274;28;19909;-60
2022/01/17 07:35:41;;;;;;;;;;;;;;;;;;5053053;28;20431;-64
2022/01/17 07:38:06;;;;;;;;;;;;;;;;;;5054205;28;20425;-63
2022/01/17 07:40:32;;;;;;;;;;;;;;;;;;5052849;28;19909;-63
2022/01/17 07:43:01;;;;;;;;;;;;;;;;;;5052386;28;20298;-61
2022/01/17 07:45:30;;;;;;;;;;;;;;;;;;5052915;28;20280;-63
2022/01/17 07:48:08;;;;;;;;;;;;;;;;;;5052759;28;19925;-63
2022/01/17 07:50:34;;;;;;;;;;;;;;;;;;5053088;28;20410;-63
2022/01/17 07:53:00;;;;;;;;;;;;;;;;;;5054113;28;19909;-63
2022/01/17 07:55:26;;;;;;;;;;;;;;;;;;5054298;28;19909;-63
2022/01/17 07:57:52;;;;;;;;;;;;;;;;;;5054369;28;20050;-63
2022/01/17 08:00:22;;;;;;;;;;;;;;;;;;5063078;28;19960;-63
2022/01/17 08:02:48;;;;;;;;;;;;;;;;;;5072666;28;19963;-63
2022/01/17 08:05:14;;;;;;;;;;;;;;;;;;5073955;28;19912;-65
2022/01/17 08:07:40;;;;;;;;;;;;;;;;;;5072714;28;19915;-63
2022/01/17 08:10:12;;;;;;;;;;;;;;;;;;5074248;28;19913;-64
2022/01/17 08:12:38;;;;;;;;;;;;;;;;;;5072541;28;20057;-62
2022/01/17 08:15:05;;;;;;;;;;;;;;;;;;5072406;28;19944;-62
2022/01/17 08:17:31;;;;;;;;;;;;;;;;;;5073813;28;19915;-63
2022/01/17 08:19:57;;;;;;;;;;;;;;;;;;5073481;28;19948;-63
2022/01/17 08:22:23;;;;;;;;;;;;;;;;;;5073191;28;20233;-63
2022/01/17 08:24:48;;;;;;;;;;;;;;;;;;5073521;28;20009;-63
2022/01/17 08:27:14;;;;;;;;;;;;;;;;;;5072354;28;20361;-64
2022/01/17 08:29:40;;;;;;;;;;;;;;;;;;5073585;28;19905;-63
2022/01/17 08:32:07;;;;;;;;;;;;;;;;;;5073587;28;19920;-62
2022/01/17 08:34:33;;;;;;;;;;;;;;;;;;5073360;28;19940;-64
2022/01/17 08:36:59;;;;;;;;;;;;;;;;;;5072564;28;19955;-63
2022/01/17 08:39:25;;;;;;;;;;;;;;;;;;5073682;28;20431;-62
2022/01/17 08:41:50;;;;;;;;;;;;;;;;;;5073455;28;19909;-65
2022/01/17 08:44:19;;;;;;;;;;;;;;;;;;5073355;28;19916;-64
2022/01/17 08:46:44;;;;;;;;;;;;;;;;;;5072924;28;19908;-63
2022/01/17 08:49:10;;;;;;;;;;;;;;;;;;5072851;28;19915;-63
2022/01/17 08:51:36;;;;;;;;;;;;;;;;;;5072634;28;19913;-59
2022/01/17 08:54:02;;;;;;;;;;;;;;;;;;5073303;28;19916;-60
2022/01/17 08:56:30;;;;;;;;;;;;;;;;;;5073362;28;19919;-57
2022/01/17 08:58:55;;;;;;;;;;;;;;;;;;5073622;28;19947;-60
2022/01/17 09:01:23;;;;;;;;;;;;;;;;;;5073534;28;19908;-59
2022/01/17 09:03:48;;;;;;;;;;;;;;;;;;5072834;28;19917;-60
2022/01/17 09:06:14;;;;;;;;;;;;;;;;;;5073349;28;19915;-60
2022/01/17 09:08:40;;;;;;;;;;;;;;;;;;5073279;28;19909;-60
2022/01/17 09:11:06;;;;;;;;;;;;;;;;;;5073075;28;19912;-60
2022/01/17 09:13:32;;;;;;;;;;;;;;;;;;5064768;28;19916;-59
2022/01/17 09:15:58;;;;;;;;;;;;;;;;;;5051926;28;19909;-59
2022/01/17 09:18:24;;;;;;;;;;;;;;;;;;5049989;28;19908;-61
2022/01/17 09:20:50;;;;;;;;;;;;;;;;;;5050927;28;20392;-61
2022/01/17 09:23:16;;;;;;;;;;;;;;;;;;5048831;28;19987;-61
2022/01/17 09:25:42;;;;;;;;;;;;;;;;;;5050840;28;20034;-61
2022/01/17 09:28:08;;;;;;;;;;;;;;;;;;5050726;28;20338;-61
2022/01/17 09:30:34;;;;;;;;;;;;;;;;;;5050870;28;19909;-60
2022/01/17 09:33:00;;;;;;;;;;;;;;;;;;5050293;28;19919;-59
2022/01/17 09:35:25;;;;;;;;;;;;;;;;;;5050132;28;19978;-59
2022/01/17 09:37:51;;;;;;;;;;;;;;;;;;5050682;28;19913;-60
2022/01/17 09:40:19;;;;;;;;;;;;;;;;;;5050554;28;19908;-59
2022/01/17 09:42:45;;;;;;;;;;;;;;;;;;5049878;28;20035;-58
2022/01/17 09:45:11;;;;;;;;;;;;;;;;;;5050436;28;20383;-56
2022/01/17 09:47:37;;;;;;;;;;;;;;;;;;5050409;28;19961;-62
2022/01/17 09:50:03;;;;;;;;;;;;;;;;;;5048938;28;19931;-60
2022/01/17 09:54:59;;;;;;;;;;;;;;;;;;5050451;28;19909;-61
2022/01/17 09:57:26;;;;;;;;;;;;;;;;;;5050097;28;19913;-59
2022/01/17 09:59:52;;;;;;;;;;;;;;;;;;5049977;28;19970;-60
2022/01/17 10:02:18;;;;;;;;;;;;;;;;;;5048341;28;20364;-60
2022/01/17 10:04:43;;;;;;;;;;;5.60;99.90;;;;;;5049879;28;19913;-60
2022/01/17 10:07:09;;;;;;;;;;;6.30;99.90;;;;;;5050457;28;19974;-58
2022/01/17 10:09:35;;;;;;;;;;;6.20;99.90;;;;;;5050294;28;19948;-62
2022/01/17 10:12:13;;;;;;;;;;;6.20;99.90;;;;;;5050357;28;19920;-61
2022/01/17 10:14:41;;;;;;;;;;;6.20;99.90;;;;;;5050107;28;19909;-60
2022/01/17 10:17:11;;;;;;;;;;;6.10;99.90;;;;;;5050270;28;19909;-62
2022/01/17 10:19:37;;;;;;;;;;;;;;;;;;5049824;28;19920;-58
2022/01/17 10:22:09;;;;;;;;;;;;;;;;;;5050280;28;20421;-61
2022/01/17 10:28:19;;;;;;;;;;;;;;;;;;5053964;28;19927;-62
2022/01/17 10:35:33;;;;;;;;;;;;;;;;;;5037826;28;19967;-60
2022/01/17 10:37:58;;;;;;;;;;;;;;;;;;5054451;28;19952;-60
2022/01/17 10:40:24;;;;;;;;;;;;;;;;;;5056651;28;19909;-58
2022/01/17 10:42:50;;;;;;;;;;;;;;;;;;5056054;28;19940;-61
2022/01/17 10:45:16;;;;;;;;;;;;;;;;;;5056612;28;19917;-60
2022/01/17 10:47:45;;;;;;;;;;;;;;;;;;5055653;28;19920;-60
2022/01/17 10:50:12;;;;;;;;;;;;;;;;;;5057829;28;19988;-62
2022/01/17 10:52:38;;;;;;;;;;;;;;;;;;5074498;28;19908;-58
2022/01/17 10:55:04;;;;;;;;;;;;;;;;;;5075976;28;19908;-61
2022/01/17 10:57:29;;;;;;;;;;;;;;;;;;5073822;28;20329;-60
2022/01/17 10:59:56;;;;;;;;;;;;;;;;;;5073242;28;19916;-62
2022/01/17 11:02:22;;;;;;;;;;;;;;;;;;5073058;28;19916;-62
2022/01/17 11:04:47;;;;;;;;;;;;;;;;;;5073495;28;19912;-62
2022/01/17 11:07:13;;;;;;;;;;;;;;;;;;5073580;28;20353;-62
2022/01/17 11:09:39;;;;;;;;;;;;;;;;;;5073286;28;19908;-62
2022/01/17 11:12:05;;;;;;;;;;;;;;;;;;5072838;28;19987;-62
2022/01/17 11:14:31;;;;;;;;;;;;;;;;;;5072816;28;19970;-63
2022/01/17 11:16:57;;;;;;;;;;;;;;;;;;5073157;28;20064;-62
2022/01/17 11:20:02;;;;;;;;;;;;;;;;;;5072794;28;19909;-63
2022/01/17 11:22:09;;;;;;;;;;;;;;;;;;5072687;28;19909;-58
2022/01/17 11:24:35;;;;;;;;;;;;;;;;;;5071244;28;19999;-63
2022/01/17 11:27:03;;;;;;;;;;;;;;;;;;5072757;28;19915;-61
2022/01/17 11:29:29;;;;;;;;;;;;;;;;;;5072309;28;19915;-62
2022/01/17 11:31:55;;;;;;;;;;;;;;;;;;5072061;28;20011;-60
2022/01/17 11:34:21;;;;;;;;;;;;;;;;;;5072002;28;19909;-62
2022/01/17 11:36:47;;;;;;;;;;;;;;;;;;5072646;28;19952;-62
2022/01/17 11:39:15;;;;;;;;;;;;;;;;;;5072366;28;19920;-61
2022/01/17 11:41:41;;;;;;;;;;;;;;;;;;5072545;28;20237;-61
2022/01/17 11:44:07;;;;;;;;;;;;;;;;;;5072269;28;19912;-61
2022/01/17 11:46:33;;;;;;;;;;;;;;;;;;5072101;28;19926;-60
2022/01/17 11:48:59;;;;;;;;;;;;;;;;;;5072177;28;20458;-63
2022/01/17 11:51:25;;;;;;;;;;;;;;;;;;5070663;28;19908;-63
2022/01/17 11:53:51;;;;;;;;;;;;;;;;;;5072000;28;19908;-63
2022/01/17 11:56:17;;;;;;;;;;;;;;;;;;5072446;28;19919;-64
2022/01/17 11:58:43;;;;;;;;;;;;;;;;;;5071803;28;19957;-61
2022/01/17 12:01:08;;;;;;;;;;;;;;;;;;5070928;28;19919;-62
2022/01/17 12:03:34;;;;;;;;;;;;;;;;;;5071380;28;19917;-63
2022/01/17 12:06:02;;;;;;;;;;;;;;;;;;5070225;28;19908;-64
2022/01/17 12:08:28;;;;;;;;;;;;;;;;;;5070871;28;19909;-60
2022/01/17 12:10:54;;;;;;;;;;;;;;;;;;5071798;28;19977;-63
2022/01/17 12:13:23;;;;;;;;;;;;;;;;;;5071205;28;20333;-64
2022/01/17 12:15:48;;;;;;;;;;;;;;;;;;5071641;28;20021;-62
2022/01/17 12:18:14;;;;;;;;;;;;;;;;;;5070885;28;19935;-63
2022/01/17 12:20:40;;;;;;;;;;;;;;;;;;5071293;28;19919;-63
2022/01/17 12:23:06;;;;;;;;;;;;;;;;;;5071157;28;19919;-61
2022/01/17 12:25:34;;;;;;;;;;;;;;;;;;5071452;28;19949;-63
2022/01/17 12:28:00;;;;;;;;;;;;;;;;;;5071326;28;20342;-63
2022/01/17 12:30:25;;;;;;;;;;;;;;;;;;5071225;28;19912;-63
2022/01/17 12:32:52;;;;;;;;;;;;;;;;;;5071086;28;19912;-62
2022/01/17 12:35:18;;;;;;;;;;;;;;;;;;5070021;28;19966;-62
2022/01/17 12:37:44;;;;;;;;;;;;;;;;;;5071268;28;20364;-62
2022/01/17 12:40:10;;;;;;;;;;;;;;;;;;5071187;28;20235;-61
2022/01/17 12:42:36;;;;;;;;;;;;;;;;;;5070799;28;19913;-64
2022/01/17 12:45:02;;;;;;;;;;;;;;;;;;5071443;28;20414;-67
2022/01/17 12:47:28;;;;;;;;;;;;;;;;;;5070697;28;19913;-63
2022/01/17 12:49:54;;;;;;;;;;;;;;;;;;5070755;28;20287;-62
2022/01/17 12:52:19;;;;;;;;;;;;;;;;;;5070966;28;19909;-64
2022/01/17 12:54:46;;;;;;;;;;;;;;;;;;5069599;28;19909;-60
2022/01/17 12:57:11;;;;;;;;;;;;;;;;;;5071210;28;19916;-62
2022/01/17 12:59:37;;;;;;;;;;;;;;;;;;5070444;28;19908;-62
2022/01/17 13:02:04;;;;;;;;;;;;;;;;;;5086264;22;19916;-63
2022/01/17 13:04:31;;;;;;;;;;;;;;;;;;5009285;28;20016;-63
2022/01/17 13:06:57;;;;;;;;;;;;;;;;;;5012539;28;19909;-65
2022/01/17 13:09:28;;;;;;;;;;;;;;;;;;4994118;28;20414;-64
2022/01/17 13:11:57;;;;;;;;;;;;;;;;;;4992291;28;19917;-66
2022/01/17 13:14:22;;;;;;;;;;;;;;;;;;4993384;28;20098;-64
2022/01/17 13:16:48;;;;;;;;;;;;;;;;;;5010991;28;19909;-64
2022/01/17 13:19:14;;;;;;;;;;;;;;;;;;5012909;28;20343;-65
2022/01/17 13:21:40;;;;;;;;;;;;;;;;;;5012404;28;19916;-66
2022/01/17 13:24:18;;;;;;;;;;;;;;;;;;5010716;28;20289;-66
2022/01/17 13:26:47;;;;;;;;;;;;;;;;;;5010962;28;19951;-64
2022/01/17 13:29:12;;;;;;;;;;;;;;;;;;5012176;28;19944;-64
2022/01/17 13:31:38;;;;;;;;;;;;;;;;;;5010082;28;19909;-65
2022/01/17 13:34:04;;;;;;;;;;;;;;;;;;4999987;28;19913;-67
2022/01/17 13:36:30;;;;;;;;;;;;;;;;;;4992464;28;19922;-64
2022/01/17 13:38:56;;;;;;;;;;;;;;;;;;4992066;28;19906;-63
2022/01/17 13:41:22;;;;;;;;;;;;;;;;;;4997414;28;20013;-64
2022/01/17 13:43:48;;;;;;;;;;;;;;;;;;5002297;28;19925;-65
2022/01/17 13:46:14;;;;;;;;;;;;;;;;;;5000680;28;19932;-65
2022/01/17 13:48:40;;;;;;;;;;;;;;;;;;5002303;28;19921;-63
2022/01/17 13:51:05;;;;;;;;;;;;;;;;;;5008163;28;19910;-65
2022/01/17 13:53:31;;;;;;;;;;;;;;;;;;5012137;28;19918;-66
2022/01/17 13:55:57;;;;;;;;;;;;;;;;;;5012216;28;19945;-67
2022/01/17 13:58:23;;;;;;;;;;;;;;;;;;5027048;28;19936;-65
2022/01/17 14:00:49;;;;;;;;;;;;;;;;;;5015558;28;19909;-64
2022/01/17 14:03:15;;;;;;;;;;;;;;;;;;5015104;28;20408;-66
2022/01/17 14:05:41;;;;;;;;;;;;;;;;;;5015712;28;19913;-66
2022/01/17 14:08:07;;;;;;;;;;;;;;;;;;5013914;28;20369;-65
2022/01/17 14:10:34;;;;;;;;;;;;;;;;;;5014555;28;19914;-64
2022/01/17 14:12:59;;;;;;;;;;;;;;;;;;5014161;28;19910;-65
2022/01/17 14:15:25;;;;;;;;;;;;;;;;;;5013818;28;19910;-65
2022/01/17 14:17:51;;;;;;;;;;;;;;;;;;5014419;28;19914;-62
2022/01/17 14:20:18;;;;;;;;;;;;;;;;;;5013608;28;19909;-64
2022/01/17 14:22:44;;;;;;;;;;;;;;;;;;5014009;28;19909;-64
2022/01/17 14:25:10;;;;;;;;;;;;;;;;;;5014289;28;20293;-62
2022/01/17 14:27:37;;;;;;;;;;;;;;;;;;5014539;28;20294;-59
2022/01/17 14:30:06;;;;;;;;;;;;;;;;;;5013434;28;20016;-65
2022/01/17 14:32:31;;;;;;;;;;;;;;;;;;5013996;28;19910;-66
2022/01/17 14:34:58;;;;;;;;;;;;;;;;;;5012588;28;19909;-64
2022/01/17 14:37:24;;;;;;;;;;;;;;;;;;5012726;28;19910;-63
2022/01/17 14:39:50;;;;;;;;;;;;;;;;;;5012850;28;19916;-63
2022/01/17 14:42:17;;;;;;;;;;;;;;;;;;5011129;28;19909;-64
2022/01/17 14:44:43;;;;;;;;;;;;;;;;;;5012985;28;19976;-64
2022/01/17 14:47:09;;;;;;;;;;;;;;;;;;5013284;28;19909;-65
2022/01/17 14:49:35;;;;;;;;;;;;;;;;;;5013655;28;19912;-60
2022/01/17 14:52:04;;;;;;;;;;;;;;;;;;5012015;28;19932;-63
2022/01/17 14:54:36;;;;;;;;;;;;;;;;;;5013193;28;20309;-63
2022/01/17 14:59:59;;;;;;;;;;;;;;;;;;5013812;28;19995;-62
2022/01/17 15:02:34;;;;;;;;;;;;;;;;;;4998489;28;19913;-64
2022/01/17 15:05:00;;;;;;;;;;;;;;;;;;4995138;28;20424;-65
2022/01/17 15:07:26;;;;;;;;;;;;;;;;;;4995125;28;19910;-65
2022/01/17 15:09:52;;;;;;;;;;;;;;;;;;4994967;28;20016;-61
2022/01/17 15:12:18;;;;;;;;;;;;;;;;;;4994852;28;19921;-61
2022/01/17 15:14:44;;;;;;;;;;;;;;;;;;4994854;28;19909;-63
2022/01/17 15:17:09;;;;;;;;;;;;;;;;;;4995198;28;19917;-63
2022/01/17 15:19:35;;;;;;;;;;;;;;;;;;4993159;28;19960;-62
2022/01/17 15:22:01;;;;;;;;;;;;;;;;;;4993389;28;19914;-64
2022/01/17 15:24:27;;;;;;;;;;;;;;;;;;4992523;28;19914;-63
2022/01/17 15:26:53;;;;;;;;;;;;;;;;;;4993714;28;19964;-63
2022/01/17 15:29:24;;;;;;;;;;;;;;;;;;4994393;28;19910;-63
2022/01/17 15:31:52;;;;;;;;;;;;;;;;;;4994462;28;19917;-61
2022/01/17 15:34:18;;;;;;;;;;;;;;;;;;4993007;28;20000;-61
2022/01/17 15:36:44;;;;;;;;;;;;;;;;;;5002272;28;20048;-63
2022/01/17 15:39:10;;;;;;;;;;;;;;;;;;4998200;28;19914;-64
2022/01/17 15:41:36;;;;;;;;;;;;;;;;;;4657523;28;10000109;-65
2022/01/17 15:44:02;;;;;;;;;;;;;;;;;;5002991;28;19952;-65
2022/01/17 15:46:29;;;;;;;;;;;;;;;;;;4999700;28;20255;-66
2022/01/17 15:48:55;;;;;;;;;;;;;;;;;;5017754;28;19979;-64
2022/01/17 15:51:21;;;;;;;;;;;;;;;;;;4999805;28;19992;-64
2022/01/17 15:53:47;;;;;;;;;;;;;;;;;;5001766;28;19917;-64
2022/01/17 15:56:13;;;;;;;;;;;;;;;;;;4998095;28;20028;-64
2022/01/17 15:58:38;;;;;;;;;;;;;;;;;;5000929;28;20370;-62
2022/01/17 16:01:04;;;;;;;;;;;;;;;;;;5000860;28;19914;-63
2022/01/17 16:03:30;;;;;;;;;;;;;;;;;;5000506;28;19974;-68
2022/01/17 16:05:56;;;;;;;;;;;;;;;;;;4993358;28;19914;-66
2022/01/17 16:08:22;;;;;;;;;;;;;;;;;;4989245;28;19918;-65
2022/01/17 16:10:51;;;;;;;;;;;;;;;;;;4990800;28;19910;-65
2022/01/17 16:13:17;;;;;;;;;;;;;;;;;;4995678;28;19917;-66
2022/01/17 16:15:42;;;;;;;;;;;;;;;;;;4998820;28;19918;-67
2022/01/17 16:18:09;;;;;;;;;;;;;;;;;;5001886;28;19917;-64
2022/01/17 16:20:35;;;;;;;;;;;;;;;;;;5001295;28;19917;-65
2022/01/17 16:23:01;;;;;;;;;;;;;;;;;;5000632;28;19918;-65
2022/01/17 16:25:29;;;;;;;;;;;;;;;;;;5001797;28;19967;-65
2022/01/17 16:28:00;;;;;;;;;;;;;;;;;;4998821;28;19914;-64
2022/01/17 16:30:26;;;;;;;;;;;;;;;;;;4998773;28;19961;-63
2022/01/17 16:32:52;;;;;;;;;;;;;;;;;;4999651;28;20611;-65
2022/01/17 16:35:17;;;;;;;;;;;;;;;;;;4997209;28;19916;-65
2022/01/17 16:37:43;;;;;;;;;;;;;;;;;;5003777;28;20484;-65
2022/01/17 16:40:09;;;;;;;;;;;;;;;;;;5000766;28;19909;-62
2022/01/17 16:42:36;;;;;;;;;;;;;;;;;;5004340;28;19924;-64
2022/01/17 16:45:02;;;;;;;;;;;;;;;;;;4998054;28;19922;-65